San Antonio, TX

2:21 AM CDT on July 25, 2016 (GMT -0500)
Monticello | | Change Station

Elev 751 ft 29.47 °N, 98.53 °W | Updated 5 minutes ago

Partly Cloudy
Partly Cloudy
81.5 °F
Feels Like 87 °F
N
0.0
Wind Variable Wind from NE

Today
High -- | Low -- °F
--% Chance of Precip.
Yesterday
High -- | Low -- °F
Precip. -- in
Pressure 29.91 in
Visibility 10.0 miles
Clouds Few 25000 ft
Heat Index 87 °F
Dew Point 73 °F
Humidity 75%
Rainfall 0.00 in
Snow Depth Not available.
6:50 AM 8:30 PM
Waning Gibbous, 68% visible
METAR KSAT 250651Z 16009KT 10SM FEW250 27/22 A2997 RMK AO2 SLP127 T02720222
Pressure 29.91 in
Visibility 10.0 miles
Clouds Few 25000 ft
Heat Index 87 °F
Dew Point 73 °F
Humidity 75%
Rainfall 0.00 in
Snow Depth Not available.
6:50 AM 8:30 PM
Waning Gibbous, 68% visible
METAR KSAT 250651Z 16009KT 10SM FEW250 27/22 A2997 RMK AO2 SLP127 T02720222

10-Day Weather Forecast

Almanac

Astronomy

Jul. 25, 2016 Rise Set
Actual Time
Civil Twilight
Nautical Twilight
Astronomical Twilight
Moon
Length of Visible Light
Length of Day
Tomorrow will be .
, % of the Moon is Illuminated

Today's Extremes

State Highs State Lows

Community

WunderPhotos

Upload Photos

1,927,274 photos uploaded!

WunderBlog® & News

Nearby

Air Quality

  Air Quality AQ Index Pollutant
Not available.

Snow Depth

Station Depth Elevation

Earthquake Activity

City Distance Mag. Time & Date
Minimum magnitude displayed is 2.5.

Coastal Water Temperatures

Place Temperature

Stations

Nearby Weather Stations

Station Location Temp. Windchill Dew Point Humidity Wind Precip. Elev Updated Type
                   

Watches & Warnings

There are currently no watches in effect.